Track Емельянчик Владимир

Time Latitude Longitude Accuracy (66% radius in meters) Altitude (meters) Speed (km/hour) Bearing (degrees) Battery (%) GPS flag
09:45:10 56.387633 43.737187 20.875 78.2 0 99.870002746582 56 1 delete
09:44:59 56.387675 43.737275 17 78.7 0 127.33000183105 56 1 delete
09:44:49 56.387675 43.737275 17 78.7 0 127.33000183105 56 1 delete
09:44:39 56.387612 43.737163 17 105.4 0 123.83000183105 56 1 delete
09:44:38 56.387612 43.737163 17 105.4 0 123.83000183105 56 1 delete
09:44:35 56.387785 43.737447 17 105.4 0 123.83000183105 56 1 delete
09:44:27 56.387612 43.737163 19 105.4 0 123.83000183105 56 1 delete
09:44:16 56.387595 43.737140 16 106.8 0 123.83000183105 56 1 delete
09:44:14 56.387563 43.737090 17 110.9 0 123.83000183105 56 1 delete
09:44:04 56.387530 43.737040 17 117.2 0 123.83000183105 56 1 delete
09:43:53 56.387530 43.737040 17 117.2 0 123.83000183105 56 1 delete
09:43:40 56.387503 43.737020 17 118.9 0 123.83000183105 56 1 delete
09:43:29 56.387503 43.737020 17 118.9 0 123.83000183105 56 1 delete
09:43:19 56.387503 43.737020 17 118.9 0 123.83000183105 56 1 delete
09:43:07 56.387455 43.736972 16 102.2 0 123.83000183105 56 1 delete
09:42:56 56.387455 43.736972 16 102.2 0 123.83000183105 56 1 delete
09:42:44 56.387455 43.736972 16 102.2 0 123.83000183105 56 1 delete
09:42:33 56.387455 43.736972 16 102.2 0 123.83000183105 56 1 delete
09:42:22 56.387455 43.736972 16 102.2 0 123.83000183105 56 1 delete
09:42:10 56.387455 43.736972 16 102.2 0 123.83000183105 56 1 delete
09:41:59 56.387455 43.736972 16 102.2 0 123.83000183105 56 1 delete
09:41:47 56.387455 43.736972 16 102.2 0 123.83000183105 56 1 delete
09:41:42 56.387455 43.736972 16 102.2 0 123.83000183105 56 1 delete
09:41:35 56.387392 43.736922 16 93 1.4191092252731 108.87999725342 56 1 delete
09:41:23 56.387395 43.736900 16 93 0 87.01000213623 56 1 delete
09:41:13 56.387395 43.736900 16 93 0 87.01000213623 56 1 delete
09:41:02 56.387395 43.736900 16 93 0 87.01000213623 56 1 delete
09:40:51 56.387395 43.736900 16 93 0 87.01000213623 56 1 delete
09:40:40 56.387395 43.736900 16 93 0 87.01000213623 57 1 delete
09:40:29 56.387388 43.736845 16 98.7 0 62.569999694824 57 1 delete
09:40:08 56.387388 43.736845 16 98.7 0 62.569999694824 57 1 delete
09:39:57 56.387388 43.736845 16 98.7 0 62.569999694824 57 1 delete
09:39:46 56.387388 43.736845 16 98.7 0 62.569999694824 57 1 delete
09:39:35 56.387388 43.736845 16 98.7 0 62.569999694824 57 1 delete
09:39:23 56.387388 43.736845 16 98.7 0 62.569999694824 57 1 delete
09:39:12 56.387418 43.736907 16 104.3 1.1414574384689 62.569999694824 57 1 delete
09:39:02 56.387432 43.736848 16 109.9 0 43.009998321533 57 1 delete
09:38:51 56.387432 43.736848 16 109.9 0 43.009998321533 57 1 delete
09:38:43 56.387450 43.736808 25.25 111.5 2.4577326774597 43.009998321533 57 1 delete
09:38:40 56.387507 43.736812 22.25 110.5 1.820161819458 67.690002441406 57 1 delete
09:38:29 56.387635 43.736915 16 62.8 0 183.61999511719 57 1 delete
09:38:17 56.387635 43.736915 16 62.8 0 183.61999511719 57 1 delete
09:38:07 56.387635 43.736915 16 62.8 0 183.61999511719 57 1 delete
09:37:51 56.387635 43.736915 16 62.8 0 183.61999511719 57 1 delete
09:37:39 56.387618 43.736910 16 63.7 0 183.61999511719 57 1 delete
09:37:29 56.387593 43.736897 16 69.3 0 183.61999511719 57 1 delete
09:37:17 56.387593 43.736897 16 69.3 0 180.80999755859 57 1 delete
09:37:07 56.387593 43.736897 16 69.3 0 180.80999755859 57 1 delete
09:36:56 56.387593 43.736897 16 69.3 0 180.80999755859 57 1 delete
09:36:45 56.387593 43.736897 16 69.3 0 180.80999755859 57 1 delete